ADDS METAR Data INFO
IDs: Format: Raw Decoded Include TAF

Data at: 0508 UTC 23 May 2017

KJWY 230455Z AUTO 00000KT 7SM SCT009 17/17 A2994 RMK AO2 T01740174
KJWY 230435Z AUTO 00000KT 10SM CLR 18/18 A2995 RMK AO2 T01760175
KJWY 230415Z AUTO 00000KT 10SM CLR 18/18 A2995 RMK AO2 T01770176
KJWY 230355Z AUTO 13003KT 10SM CLR 18/18 A2995 RMK AO2 T01770175
KJWY 230335Z AUTO 00000KT 10SM CLR 18/17 A2996 RMK AO2 T01780173
KJWY 230315Z AUTO 00000KT 10SM CLR 18/17 A2996 RMK AO2 T01800172
KJWY 230255Z AUTO 00000KT 10SM CLR 18/17 A2995 RMK AO2 T01800173
KJWY 230235Z AUTO 00000KT 10SM CLR 18/17 A2995 RMK AO2 T01840169
KJWY 230215Z AUTO 10003KT 10SM CLR 19/17 A2993 RMK AO2 T01860168
KJWY 230155Z AUTO 11003KT 10SM CLR 19/17 A2993 RMK AO2 T01900168
KJWY 230135Z AUTO 00000KT 10SM CLR 20/17 A2993 RMK AO2 T01950170
KJWY 230115Z AUTO 10004KT 10SM CLR 20/17 A2993 RMK AO2 T02020170
KJWY 230055Z AUTO 10003KT 10SM CLR 21/17 A2992 RMK AO2 T02110170
KJWY 230035Z AUTO 09006KT 10SM CLR 22/17 A2993 RMK AO2 T02180171
KJWY 230015Z AUTO 09005KT 10SM SCT034 22/17 A2993 RMK AO2 T02200171
KJWY 222355Z AUTO 08007KT 10SM SCT032 23/17 A2992 RMK AO2 T02310170 10249 20227
KJWY 222335Z AUTO 10004KT 10SM SCT029 23/17 A2993 RMK AO2 T02290171
KJWY 222315Z AUTO 08006KT 10SM SCT029 SCT035 24/17 A2993 RMK AO2 T02400173
KJWY 222255Z AUTO 07005KT 10SM SCT033 24/17 A2994 RMK AO2 T02400170
KJWY 222235Z AUTO 10006KT 10SM BKN031 BKN037 25/18 A2994 RMK AO2 T02460177
KJWY 222215Z AUTO 10006KT 10SM SCT029 SCT035 24/18 A2995 RMK AO2 T02410175
KJWY 222155Z AUTO 10004KT 10SM SCT029 SCT050 25/18 A2995 RMK AO2 T02470177
KJWY 222135Z AUTO 09006KT 10SM SCT028 SCT037 BKN050 25/18 A2996 RMK AO2 T02490177
KJWY 222115Z AUTO 09005KT 10SM SCT028 SCT034 BKN044 23/17 A2997 RMK AO2 T02340173
KJWY 222055Z AUTO 12004KT 10SM SCT030 BKN038 OVC044 23/17 A2997 RMK AO2 T02300174
KJWY 222035Z AUTO 10003KT 10SM SCT030 OVC036 24/17 A2998 RMK AO2 T02360173
KJWY 222015Z AUTO 11005KT 10SM OVC034 24/17 A2998 RMK AO2 T02440174
KJWY 221955Z AUTO 08004KT 10SM OVC032 24/17 A2999 RMK AO2 T02400173
KJWY 221935Z AUTO 08005KT 10SM SCT029 OVC035 24/17 A3000 RMK AO2 T02350171
KJWY 221915Z AUTO 10007KT 060V130 10SM BKN029 OVC035 24/18 A3000 RMK AO2 T02400175
KJWY 221855Z AUTO 10005KT 10SM BKN028 OVC033 24/17 A3001 RMK AO2 T02380174
KJWY 221835Z AUTO 11004KT 10SM BKN028 BKN033 23/17 A3003 RMK AO2 T02330172
KJWY 221815Z AUTO 08005KT 10SM SCT028 24/17 A3004 RMK AO2 T02360172
KJWY 221755Z AUTO 09005KT 10SM CLR 23/17 A3005 RMK AO2 T02330170 10234 20155
KJWY 221735Z AUTO 06007KT 020V080 10SM SCT022 23/17 A3006 RMK AO2 T02270166
KJWY 221715Z AUTO 08006KT 10SM SCT022 22/16 A3006 RMK AO2 T02230164
KJWY 221655Z AUTO 09005KT 10SM SCT022 22/17 A3007 RMK AO2 T02200168
KJWY 221635Z AUTO 08006KT 10SM CLR 21/17 A3008 RMK AO2 T02140167
KJWY 221615Z AUTO 06008KT 10SM CLR 21/17 A3007 RMK AO2 T02080166
KJWY 221555Z AUTO 09006KT 10SM SCT015 20/17 A3008 RMK AO2 T02020169
KJWY 221535Z AUTO 08007KT 10SM SCT013 SCT090 19/17 A3009 RMK AO2 T01930168
KJWY 221515Z AUTO 08009KT 10SM SCT011 SCT080 19/17 A3009 RMK AO2 T01900170
KJWY 221455Z AUTO 07007KT 10SM SCT011 SCT080 18/17 A3009 RMK AO2 T01810169
KJWY 221435Z AUTO 06003KT 10SM SCT011 18/17 A3010 RMK AO2 T01760168
KJWY 221415Z AUTO 06006KT 10SM SCT080 17/17 A3009 RMK AO2 T01720166
KJWY 221355Z AUTO 06004KT 10SM CLR 17/17 A3009 RMK AO2 T01680165
KJWY 221335Z AUTO 05005KT 10SM CLR 16/16 A3009 RMK AO2 T01630161
KJWY 221315Z AUTO 06003KT 10SM SCT030 16/16 A3009 RMK AO2 T01600160
KJWY 221255Z AUTO 05003KT 10SM OVC028 16/16 A3009 RMK AO2 T01570157
KJWY 221235Z AUTO 03005KT 10SM -RA OVC026 16/16 A3009 RMK AO2 T01570157
KJWY 221215Z AUTO 03004KT 10SM BKN026 OVC120 16/16 A3010 RMK AO2 T01570157
KJWY 221155Z AUTO 02003KT 10SM BKN120 16/16 A3010 RMK AO2 P0001 60017 70021 T01550155 10166 20152
KJWY 221135Z AUTO 01003KT 10SM SCT120 16/16 A3010 RMK AO2 P0001 T01550155
KJWY 221115Z AUTO 00000KT 10SM SCT120 15/15 A3009 RMK AO2 T01520152
KJWY 221055Z AUTO 00000KT 10SM -RA SCT055 SCT070 BKN120 16/16 A3009 RMK AO2 P0005 T01550155
KJWY 221035Z AUTO 00000KT 7SM -RA SCT100 BKN120 16/16 A3009 RMK AO2 P0003 T01550155
KJWY 221015Z AUTO 14003KT 7SM RA BKN120 16/16 A3009 RMK AO2 P0001 T01560156
KJWY 220955Z AUTO 00000KT 10SM -DZ OVC110 16/16 A3010 RMK AO2 P0001 T01560156
KJWY 220935Z AUTO 00000KT 10SM -RA OVC110 16/16 A3011 RMK AO2 T01560156
KJWY 220915Z AUTO 00000KT 10SM -DZ BKN110 16/16 A3011 RMK AO2 T01560156
KJWY 220855Z AUTO 00000KT 10SM RA SCT120 16/16 A3012 RMK AO2 P0004 60010 T01560156
KJWY 220835Z AUTO 00000KT 10SM -RA SCT100 BKN120 16/16 A3013 RMK AO2 P0003 T01580158
KJWY 220815Z AUTO 00000KT 10SM -RA SCT100 BKN120 16/16 A3013 RMK AO2 P0001 T01610161
KJWY 220755Z AUTO 00000KT 7SM RA SCT120 16/16 A3013 RMK AO2 P0001 T01620162
KJWY 220735Z AUTO 00000KT 10SM -RA BKN110 16/16 A3012 RMK AO2 P0001 T01620162
KJWY 220715Z AUTO 13003KT 10SM -DZ BKN110 16/16 A3013 RMK AO2 T01630163
KJWY 220655Z AUTO 00000KT 10SM RA BKN110 17/17 A3014 RMK AO2 P0004 T01650165
KJWY 220635Z AUTO 17004KT 10SM -RA OVC110 17/17 A3015 RMK AO2 P0003 T01650165
KJWY 220615Z AUTO 36004KT 10SM RA OVC110 17/17 A3012 RMK AO2 P0002 T01650165
KJWY 220555Z AUTO 02003KT 10SM RA BKN120 17/17 A3012 RMK AO2 T01660165 10222 20164 402360148
KJWY 220535Z AUTO 00000KT 10SM RA BKN120 17/16 A3012 RMK AO2 T01650163
KJWY 220515Z AUTO 00000KT 10SM -RA SCT025 SCT070 OVC120 17/15 A3015 RMK AO2 T01700152
KJWY 220455Z AUTO 34005KT 10SM RA SCT025 SCT070 OVC110 17/16 A3015 RMK AO2 T01690164
KJWY 220435Z AUTO 00000KT 10SM -RA OVC120 17/16 A3015 RMK AO2 T01680163
KJWY 220415Z AUTO 17006KT 10SM RA OVC110 17/16 A3015 RMK AO2 T01720157
KJWY 220355Z AUTO 20006KT 10SM -RA BKN100 OVC120 18/16 A3015 RMK AO2 T01810159
KJWY 220335Z AUTO 20008KT 10SM -RA SCT060 SCT070 OVC110 19/16 A3015 RMK AO2 T01860160
KJWY 220315Z AUTO 22008KT 10SM -RA BKN060 OVC100 20/16 A3015 RMK AO2 T01970157
KJWY 220255Z AUTO 23005KT 10SM OVC100 19/16 A3012 RMK AO2 T01920164
KJWY 220235Z AUTO 35004KT 10SM SCT110 19/16 A3009 RMK AO2 T01870164
KJWY 220215Z AUTO 00000KT 10SM SCT110 19/16 A3010 RMK AO2 T01920158
KJWY 220155Z AUTO 00000KT 10SM CLR 20/16 A3010 RMK AO2 T01950157
KJWY 220135Z AUTO 00000KT 10SM SCT060 SCT120 20/16 A3010 RMK AO2 T01990155
KJWY 220115Z AUTO 00000KT 10SM BKN060 BKN110 20/16 A3009 RMK AO2 T02010156
KJWY 220055Z AUTO 00000KT 10SM SCT110 21/16 A3008 RMK AO2 T02050156
KJWY 220035Z AUTO 00000KT 10SM SCT060 SCT120 21/16 A3009 RMK AO2 T02100158
KJWY 220015Z AUTO 00000KT 10SM SCT060 OVC120 22/16 A3010 RMK AO2 T02160155
KJWY 212355Z AUTO 00000KT 10SM SCT060 BKN075 OVC120 22/15 A3010 RMK AO2 T02220148 10236 20195
KJWY 212335Z AUTO 06003KT 10SM OVC060 23/14 A3010 RMK AO2 T02260140
KJWY 212315Z AUTO 00000KT 10SM OVC060 23/13 A3011 RMK AO2 T02280134
KJWY 212255Z AUTO 07005KT 10SM BKN065 BKN080 BKN110 23/13 A3010 RMK AO2 T02300129
KJWY 212235Z AUTO 06005KT 10SM BKN065 BKN080 BKN100 23/13 A3010 RMK AO2 T02310127
KJWY 212215Z AUTO 05006KT 10SM OVC075 23/12 A3010 RMK AO2 T02300121
KJWY 212155Z AUTO 06005KT 10SM OVC065 23/13 A3011 RMK AO2 T02310125
KJWY 212135Z AUTO 06006KT 10SM BKN065 OVC085 23/12 A3010 RMK AO2 T02320119
KJWY 212115Z AUTO 07004KT 10SM BKN065 OVC085 23/12 A3011 RMK AO2 T02280120
KJWY 212055Z AUTO 06006KT 10SM BKN065 OVC085 23/11 A3012 RMK AO2 T02300114
KJWY 212035Z AUTO 06006KT 10SM SCT075 BKN085 23/12 A3012 RMK AO2 T02330119
KJWY 212015Z AUTO 05010KT 10SM BKN080 23/12 A3012 RMK AO2 T02300124
KJWY 211955Z AUTO 08007KT 10SM OVC070 22/12 A3013 RMK AO2 T02150120
KJWY 211935Z AUTO 07003KT 10SM BKN070 OVC090 22/13 A3015 RMK AO2 T02150128
KJWY 211915Z AUTO 06009G14KT 10SM BKN090 23/13 A3013 RMK AO2 T02250129
KJWY 211855Z AUTO 06007KT 10SM SCT075 OVC090 21/13 A3014 RMK AO2 T02090126
KJWY 211835Z AUTO 05007KT 10SM SCT075 OVC090 20/13 A3015 RMK AO2 T02030128
KJWY 211815Z AUTO 06004KT 10SM BKN090 OVC110 20/13 A3017 RMK AO2 T01950130
KJWY 211755Z AUTO 07005KT 10SM SCT080 OVC110 19/14 A3017 RMK AO2 60004 T01940143 10194 20148
KJWY 211735Z AUTO 07003KT 10SM BKN090 OVC100 19/15 A3018 RMK AO2 T01850147
KJWY 211715Z AUTO 06003KT 10SM BKN090 BKN110 18/14 A3018 RMK AO2 T01760141


Page loaded:  05:08 UTC  |   10:08 PM Pacific  |   11:08 PM Mountain  |   12:08 AM Central  |   01:08 AM Eastern

 

ADVISORIES

FORECASTS

FORECASTS

OBSERVATIONS

USER TOOLS

ABOUT US